Time;durP1;ratioP1;P1;durP2;ratioP2;P2;SDS_P1;SDS_P2;PMS_P1;PMS_P2;Temp;Humidity;BMP_temperature;BMP_pressure;BME280_temperature;BME280_humidity;BME280_pressure;Samples;Min_cycle;Max_cycle;Signal;HPM_P1;HPM_P2
2022/05/29 00:01:31;;;;;;;12.50;3.67;;;9.90;99.90;;;;;;5008534;28;20030;-58
2022/05/29 00:03:57;;;;;;;6.53;3.15;;;9.70;99.90;;;;;;5008880;28;20374;-57
2022/05/29 00:06:23;;;;;;;8.23;3.33;;;9.70;99.90;;;;;;5000384;28;20022;-58
2022/05/29 00:08:49;;;;;;;7.88;2.97;;;9.70;99.90;;;;;;5010423;28;20531;-58
2022/05/29 00:11:16;;;;;;;11.10;4.65;;;9.50;99.90;;;;;;5010597;28;20096;-58
2022/05/29 00:13:44;;;;;;;4.20;3.13;;;9.40;99.90;;;;;;5010020;28;20042;-58
2022/05/29 00:16:09;;;;;;;6.55;3.20;;;9.40;99.90;;;;;;5006310;28;20950;-58
2022/05/29 00:18:37;;;;;;;6.80;3.30;;;9.30;99.90;;;;;;5003926;28;20034;-58
2022/05/29 00:21:05;;;;;;;9.40;3.85;;;9.20;99.90;;;;;;5008456;28;20041;-58
2022/05/29 00:23:35;;;;;;;8.32;3.70;;;9.10;99.90;;;;;;5006496;28;20086;-58
2022/05/29 00:26:00;;;;;;;9.57;4.45;;;9.10;99.90;;;;;;4996802;28;20457;-58
2022/05/29 00:28:26;;;;;;;8.38;4.40;;;9.00;99.90;;;;;;5003986;28;20030;-58
2022/05/29 00:30:52;;;;;;;7.20;3.92;;;9.00;99.90;;;;;;5007714;28;20482;-58
2022/05/29 00:33:18;;;;;;;8.38;4.40;;;8.90;99.90;;;;;;5009170;28;20125;-58
2022/05/29 00:35:43;;;;;;;5.95;3.75;;;8.80;99.90;;;;;;5010457;28;20037;-57
2022/05/29 00:38:11;;;;;;;7.25;3.47;;;8.70;99.90;;;;;;5007808;28;20657;-57
2022/05/29 00:40:52;;;;;;;8.85;3.63;;;8.70;99.90;;;;;;5008783;28;20113;-57
2022/05/29 00:43:18;;;;;;;6.90;3.58;;;8.60;99.90;;;;;;5009518;28;20419;-57
2022/05/29 00:46:04;;;;;;;8.30;3.60;;;8.50;99.90;;;;;;5009318;28;20033;-56
2022/05/29 00:48:30;;;;;;;7.53;3.70;;;8.40;99.90;;;;;;5006305;28;20022;-56
2022/05/29 00:51:03;;;;;;;6.88;3.28;;;8.30;99.90;;;;;;5008627;28;20504;-57
2022/05/29 00:53:30;;;;;;;9.32;3.60;;;8.20;99.90;;;;;;5009138;28;20534;-57
2022/05/29 00:56:06;;;;;;;9.07;3.72;;;8.20;99.90;;;;;;4999554;28;20022;-57
2022/05/29 00:58:32;;;;;;;12.50;3.95;;;8.20;99.90;;;;;;5009651;28;20030;-57
2022/05/29 01:00:58;;;;;;;8.48;3.85;;;8.10;99.90;;;;;;5006649;28;20022;-56
2022/05/29 01:03:24;;;;;;;6.47;3.10;;;8.20;99.90;;;;;;5008782;28;20041;-57
2022/05/29 01:05:50;;;;;;;6.88;2.92;;;8.10;99.90;;;;;;5009243;28;20450;-57
2022/05/29 01:08:27;;;;;;;6.05;2.75;;;8.10;99.90;;;;;;5009224;28;20462;-57
2022/05/29 01:11:16;;;;;;;5.07;2.70;;;8.10;99.90;;;;;;4991267;28;20022;-56
2022/05/29 01:14:19;;;;;;;4.65;2.72;;;8.20;99.90;;;;;;5006035;28;20046;-58
2022/05/29 01:17:06;;;;;;;9.57;2.42;;;8.20;99.90;;;;;;4994631;28;20537;-57
2022/05/29 01:20:06;;;;;;;3.53;2.38;;;8.20;99.90;;;;;;5007427;28;20050;-57
2022/05/29 01:22:34;;;;;;;4.65;2.38;;;8.10;99.90;;;;;;4984986;28;20026;-58
2022/05/29 01:25:26;;;;;;;4.68;2.40;;;8.00;99.90;;;;;;5004820;28;20129;-58
2022/05/29 01:28:12;;;;;;;4.43;2.10;;;8.00;99.90;;;;;;4923836;29;20039;-57
2022/05/29 01:31:06;;;;;;;2.92;2.30;;;8.10;99.90;;;;;;4925301;29;20262;-57
2022/05/29 01:34:05;;;;;;;4.78;2.00;;;8.20;99.90;;;;;;4929275;29;20121;-57
2022/05/29 01:36:36;;;;;;;3.22;1.65;;;8.30;99.90;;;;;;4923021;29;20517;-57
2022/05/29 01:39:33;;;;;;;3.88;1.85;;;8.30;99.90;;;;;;4929597;29;20047;-56
2022/05/29 01:42:09;;;;;;;3.63;1.75;;;8.40;99.90;;;;;;4928007;29;20067;-57
2022/05/29 01:44:42;;;;;;;3.83;1.65;;;8.50;99.90;;;;;;4933199;29;20042;-58
2022/05/29 01:47:15;;;;;;;3.40;1.80;;;8.50;99.90;;;;;;4929635;29;20031;-57
2022/05/29 01:49:48;;;;;;;3.72;1.77;;;8.50;99.90;;;;;;4931885;29;20024;-57
2022/05/29 01:52:26;;;;;;;3.97;1.58;;;8.40;99.90;;;;;;4947327;29;20531;-57
2022/05/29 01:55:03;;;;;;;4.05;1.65;;;8.30;99.90;;;;;;4947262;29;20070;-56
2022/05/29 01:57:36;;;;;;;4.40;2.40;;;8.30;99.90;;;;;;4949320;29;20059;-58
2022/05/29 02:00:12;;;;;;;3.55;1.65;;;8.20;99.90;;;;;;4939927;29;20094;-57
2022/05/29 02:02:39;;;;;;;4.05;1.80;;;8.10;99.90;;;;;;4937402;29;20035;-56
2022/05/29 02:05:11;;;;;;;4.03;1.75;;;8.00;99.90;;;;;;4985689;28;20034;-57
2022/05/29 02:07:49;;;;;;;6.57;1.80;;;7.90;99.90;;;;;;5012720;28;20537;-57
2022/05/29 02:10:26;;;;;;;3.80;1.85;;;7.90;99.90;;;;;;5010504;28;20076;-58
2022/05/29 02:13:27;;;;;;;5.53;1.90;;;7.80;99.90;;;;;;5007305;28;20037;-58
2022/05/29 02:16:01;;;;;;;7.05;2.00;;;7.80;99.90;;;;;;5003365;28;20061;-58
2022/05/29 02:18:50;;;;;;;2.28;1.50;;;7.70;99.90;;;;;;5012208;28;20444;-58
2022/05/29 02:21:58;;;;;;;5.22;1.95;;;7.70;99.90;;;;;;5010801;28;20022;-57
2022/05/29 02:24:30;;;;;;;3.40;1.80;;;7.60;99.90;;;;;;5000460;28;20037;-59
2022/05/29 02:26:59;;;;;;;;;;;7.60;99.90;;;;;;5009252;28;20026;-58
2022/05/29 02:29:25;;;;;;;6.90;1.80;;;7.50;99.90;;;;;;5011543;28;19910;-58
2022/05/29 02:31:59;;;;;;;4.47;2.10;;;7.60;99.90;;;;;;5010505;28;20136;-56
2022/05/29 02:34:51;;;;;;;3.83;1.80;;;7.50;99.90;;;;;;5004192;28;20061;-58
2022/05/29 02:37:37;;;;;;;1.95;1.38;;;7.50;99.90;;;;;;4997084;28;20482;-57
2022/05/29 02:40:03;;;;;;;4.18;2.20;;;7.50;99.90;;;;;;5007730;28;20516;-58
2022/05/29 02:42:46;;;;;;;1.83;1.60;;;7.40;99.90;;;;;;5010749;28;20065;-58
2022/05/29 02:45:28;;;;;;;7.97;2.13;;;7.30;99.90;;;;;;5005525;28;20080;-58
2022/05/29 02:48:02;;;;;;;2.55;1.65;;;7.20;99.90;;;;;;5010444;28;20487;-58
2022/05/29 02:50:57;;;;;;;2.33;1.30;;;7.20;99.90;;;;;;5011233;28;20053;-58
2022/05/29 02:53:24;;;;;;;3.40;1.67;;;7.30;99.90;;;;;;5007509;28;20121;-58
2022/05/29 02:55:50;;;;;;;2.85;1.67;;;7.30;99.90;;;;;;5010637;28;20164;-58
2022/05/29 02:58:23;;;;;;;5.65;2.78;;;7.30;99.90;;;;;;5011393;28;20077;-57
2022/05/29 03:01:13;;;;;;;3.00;1.70;;;7.20;99.90;;;;;;5011913;28;20054;-56
2022/05/29 03:04:04;;;;;;;2.65;1.65;;;7.20;99.90;;;;;;5007479;28;20022;-57
2022/05/29 03:06:48;;;;;;;3.53;1.20;;;7.10;99.90;;;;;;5011058;28;20053;-58
2022/05/29 03:09:31;;;;;;;2.90;1.80;;;7.00;99.90;;;;;;5009941;28;20040;-57
2022/05/29 03:11:57;;;;;;;2.45;1.60;;;7.00;99.90;;;;;;5008249;28;20030;-56
2022/05/29 03:14:47;;;;;;;4.10;1.90;;;7.00;99.90;;;;;;5011296;28;20382;-56
2022/05/29 03:17:35;;;;;;;5.65;1.80;;;7.00;99.90;;;;;;5005313;28;20034;-57
2022/05/29 03:20:40;;;;;;;5.88;1.98;;;6.90;99.90;;;;;;5008944;28;20029;-59
2022/05/29 03:23:35;;;;;;;2.67;1.40;;;6.70;99.90;;;;;;4992918;28;20104;-57
2022/05/29 03:26:06;;;;;;;4.60;1.73;;;6.60;99.90;;;;;;4997914;28;20034;-57
2022/05/29 03:28:43;;;;;;;3.63;1.50;;;6.50;99.90;;;;;;5007378;28;20085;-57
2022/05/29 03:31:14;;;;;;;4.55;1.65;;;6.40;99.90;;;;;;5000109;28;20461;-57
2022/05/29 03:33:41;;;;;;;4.80;1.75;;;6.40;99.90;;;;;;5008554;28;20561;-57
2022/05/29 03:36:15;;;;;;;3.30;1.80;;;6.30;99.90;;;;;;5008910;28;20036;-57
2022/05/29 03:38:42;;;;;;;3.15;1.15;;;6.30;99.90;;;;;;5009033;28;20042;-57
2022/05/29 03:41:12;;;;;;;4.25;1.77;;;6.20;99.90;;;;;;5007884;28;20050;-58
2022/05/29 03:43:40;;;;;;;3.58;1.27;;;6.20;99.90;;;;;;5006731;28;20142;-57
2022/05/29 03:46:06;;;;;;;4.50;1.30;;;6.20;99.90;;;;;;5009346;28;20034;-57
2022/05/29 03:48:32;;;;;;;4.05;1.48;;;6.20;99.90;;;;;;5021877;28;20032;-57
2022/05/29 03:51:07;;;;;;;4.50;2.13;;;6.30;99.90;;;;;;5008473;28;20025;-57
2022/05/29 03:53:33;;;;;;;5.55;1.73;;;6.30;99.90;;;;;;5010680;28;20120;-57
2022/05/29 03:55:59;;;;;;;3.40;1.40;;;6.20;99.90;;;;;;5007330;28;20478;-58
2022/05/29 03:58:25;;;;;;;2.55;1.25;;;6.20;99.90;;;;;;5010552;28;20036;-57
2022/05/29 04:00:51;;;;;;;5.68;1.35;;;6.20;99.90;;;;;;5002620;28;20433;-57
2022/05/29 04:03:17;;;;;;;3.15;1.73;;;6.30;99.90;;;;;;5010170;28;20053;-57
2022/05/29 04:05:43;;;;;;;1.27;1.05;;;6.30;99.90;;;;;;5010755;28;20053;-57
2022/05/29 04:13:40;;;;;;;3.45;1.33;;;6.40;99.90;;;;;;4997099;28;20041;-57
2022/05/29 04:16:06;;;;;;;3.17;1.60;;;6.30;99.90;;;;;;4998097;28;20564;-57
2022/05/29 04:18:32;;;;;;;2.72;1.25;;;6.30;99.90;;;;;;5009607;28;20034;-57
2022/05/29 04:20:58;;;;;;;2.72;1.23;;;6.30;99.90;;;;;;5005888;28;20026;-56
2022/05/29 04:23:24;;;;;;;5.40;1.30;;;6.30;99.90;;;;;;5008238;28;20029;-57
2022/05/29 04:25:50;;;;;;;5.13;1.70;;;6.30;99.90;;;;;;5010199;28;20030;-57
2022/05/29 04:28:17;;;;;;;4.95;1.20;;;6.30;99.90;;;;;;5009434;28;20048;-56
2022/05/29 04:30:43;;;;;;;4.70;1.35;;;6.30;99.90;;;;;;5009409;28;20573;-55
2022/05/29 04:33:09;;;;;;;3.38;1.48;;;6.30;99.90;;;;;;5008231;28;20040;-55
2022/05/29 04:35:48;;;;;;;4.53;0.95;;;6.30;99.90;;;;;;5009599;28;20096;-56
2022/05/29 04:38:14;;;;;;;6.15;2.25;;;6.30;99.90;;;;;;4999932;28;20054;-58
2022/05/29 04:40:41;;;;;;;2.42;0.90;;;6.40;99.90;;;;;;5009345;28;20065;-56
2022/05/29 04:43:08;;;;;;;2.85;1.05;;;6.60;99.90;;;;;;5005347;28;20425;-57
2022/05/29 04:45:33;;;;;;;1.98;0.85;;;6.70;99.90;;;;;;5010243;28;20086;-56
2022/05/29 04:47:59;;;;;;;1.55;1.27;;;6.80;99.90;;;;;;5005543;28;20050;-55
2022/05/29 04:50:25;;;;;;;2.95;1.17;;;6.70;99.90;;;;;;5007207;28;20041;-55
2022/05/29 04:52:51;;;;;;;1.13;0.70;;;6.60;99.90;;;;;;5007754;28;20394;-55
2022/05/29 04:55:18;;;;;;;2.63;1.00;;;6.60;99.90;;;;;;5005681;28;20027;-55
2022/05/29 04:57:43;;;;;;;2.90;1.25;;;6.60;99.90;;;;;;5004723;28;20405;-57
2022/05/29 05:00:10;;;;;;;3.50;0.90;;;6.60;99.90;;;;;;5001260;28;20065;-56
2022/05/29 05:02:36;;;;;;;5.43;1.00;;;6.70;99.90;;;;;;5006746;28;20022;-55
2022/05/29 05:05:03;;;;;;;6.80;1.35;;;6.70;99.90;;;;;;5003406;28;20394;-55
2022/05/29 05:07:29;;;;;;;7.28;1.38;;;6.70;99.90;;;;;;5012404;28;20026;-56
2022/05/29 05:09:55;;;;;;;5.60;1.00;;;6.70;99.90;;;;;;5016758;28;20547;-57
2022/05/29 05:12:21;;;;;;;2.88;1.00;;;6.70;99.90;;;;;;5022105;28;20038;-56
2022/05/29 05:14:46;;;;;;;3.90;1.42;;;6.70;99.90;;;;;;5010369;28;20474;-55
2022/05/29 05:17:12;;;;;;;5.22;1.02;;;6.70;99.90;;;;;;5022401;28;20033;-56
2022/05/29 05:19:38;;;;;;;6.38;1.15;;;6.70;99.90;;;;;;5017218;28;20026;-57
2022/05/29 05:22:08;;;;;;;5.78;1.70;;;6.70;99.90;;;;;;5011030;28;20026;-56
2022/05/29 05:24:35;;;;;;;2.58;1.08;;;6.70;99.90;;;;;;5013615;28;20196;-56
2022/05/29 05:27:00;;;;;;;4.07;1.60;;;6.70;99.90;;;;;;5016773;28;20030;-54
2022/05/29 05:29:26;;;;;;;2.42;1.10;;;6.80;99.90;;;;;;5020333;28;20030;-56
2022/05/29 05:31:52;;;;;;;3.63;1.15;;;6.90;99.90;;;;;;5014452;28;20042;-54
2022/05/29 05:34:18;;;;;;;3.15;1.20;;;6.90;99.90;;;;;;5013958;28;20107;-55
2022/05/29 05:36:43;;;;;;;1.58;1.20;;;6.90;99.90;;;;;;5013510;28;20026;-55
2022/05/29 05:39:09;;;;;;;6.68;1.30;;;6.90;99.90;;;;;;5008713;28;20463;-55
2022/05/29 05:41:35;;;;;;;2.72;1.35;;;7.00;99.90;;;;;;5016683;28;20029;-56
2022/05/29 05:44:01;;;;;;;2.20;1.10;;;7.00;99.90;;;;;;5013337;28;20025;-56
2022/05/29 05:46:27;;;;;;;3.92;1.10;;;7.10;99.90;;;;;;5017601;28;20026;-56
2022/05/29 05:48:54;;;;;;;3.17;1.20;;;7.20;99.90;;;;;;5011036;28;20029;-55
2022/05/29 05:51:19;;;;;;;5.25;1.55;;;7.30;99.90;;;;;;5012977;28;20034;-56
2022/05/29 05:53:45;;;;;;;4.20;1.40;;;7.30;99.90;;;;;;5010435;28;20124;-56
2022/05/29 05:56:14;;;;;;;4.45;1.27;;;7.30;99.90;;;;;;5011550;28;20474;-55
2022/05/29 05:58:42;;;;;;;6.13;1.65;;;7.40;99.90;;;;;;5012265;28;20030;-56
2022/05/29 06:01:12;;;;;;;2.88;1.70;;;7.40;99.90;;;;;;5011047;28;20538;-54
2022/05/29 06:03:38;;;;;;;2.97;1.52;;;7.50;99.90;;;;;;5016492;28;20037;-56
2022/05/29 06:06:04;;;;;;;7.30;1.95;;;7.60;99.90;;;;;;5009061;28;20061;-55
2022/05/29 06:08:30;;;;;;;4.68;1.75;;;7.60;99.90;;;;;;5011480;28;20076;-56
2022/05/29 06:10:56;;;;;;;8.02;1.33;;;7.70;99.90;;;;;;5015602;28;20049;-56
2022/05/29 06:13:22;;;;;;;4.75;2.47;;;7.80;99.90;;;;;;5009475;28;20469;-57
2022/05/29 06:15:48;;;;;;;3.33;1.20;;;7.90;99.90;;;;;;5020930;28;20025;-57
2022/05/29 06:18:15;;;;;;;4.68;1.23;;;7.90;99.90;;;;;;5013404;28;20037;-56
2022/05/29 06:20:42;;;;;;;5.50;1.15;;;8.00;99.90;;;;;;5012807;28;20075;-56
2022/05/29 06:23:08;;;;;;;2.72;1.67;;;8.10;99.90;;;;;;5013031;28;20034;-57
2022/05/29 06:25:34;;;;;;;5.60;1.60;;;8.20;99.90;;;;;;5011318;28;20038;-57
2022/05/29 06:28:03;;;;;;;8.60;1.52;;;8.30;99.90;;;;;;5009974;28;20030;-57
2022/05/29 06:30:29;;;;;;;6.32;1.40;;;8.40;99.90;;;;;;5006149;28;20125;-57
2022/05/29 06:32:55;;;;;;;6.95;1.27;;;8.50;99.90;;;;;;5006710;28;20104;-57
2022/05/29 06:35:21;;;;;;;6.68;1.48;;;8.50;99.90;;;;;;5007795;28;20034;-56
2022/05/29 06:37:47;;;;;;;7.85;1.13;;;8.50;99.90;;;;;;5012278;28;20021;-57
2022/05/29 06:40:15;;;;;;;5.13;1.35;;;8.50;99.90;;;;;;5011632;28;20091;-57
2022/05/29 06:42:42;;;;;;;2.78;0.95;;;8.60;99.90;;;;;;5012654;28;20489;-57
2022/05/29 06:45:09;;;;;;;4.53;1.17;;;8.70;99.90;;;;;;5010275;28;20029;-56
2022/05/29 06:47:35;;;;;;;6.07;1.33;;;8.70;99.90;;;;;;5010316;28;20410;-57
2022/05/29 06:50:02;;;;;;;5.30;1.05;;;8.80;99.90;;;;;;5010536;28;20026;-58
2022/05/29 06:52:32;;;;;;;4.38;1.00;;;8.90;99.90;;;;;;5009961;28;20053;-58
2022/05/29 06:54:59;;;;;;;5.38;0.77;;;9.00;99.90;;;;;;5010599;28;20026;-57
2022/05/29 06:57:40;;;;;;;5.22;1.00;;;9.00;99.90;;;;;;5007703;28;20049;-58
2022/05/29 07:08:36;;;;;;;3.30;1.00;;;9.40;99.90;;;;;;5010920;28;20064;-58
2022/05/29 07:11:07;;;;;;;5.20;0.82;;;9.50;99.90;;;;;;5006854;28;20057;-57
2022/05/29 07:13:34;;;;;;;3.10;0.88;;;9.60;99.30;;;;;;5009846;28;20038;-57
2022/05/29 07:16:01;;;;;;;7.07;1.10;;;9.80;98.90;;;;;;5008675;28;20017;-56
2022/05/29 07:18:29;;;;;;;6.28;0.98;;;9.90;98.60;;;;;;5011345;28;20061;-56
2022/05/29 07:20:57;;;;;;;3.45;0.82;;;9.90;97.50;;;;;;5009717;28;20374;-56
2022/05/29 07:23:23;;;;;;;3.45;0.93;;;10.00;97.20;;;;;;5008509;28;20029;-59
2022/05/29 07:25:49;;;;;;;3.00;1.35;;;10.00;96.90;;;;;;5010552;28;20026;-57
2022/05/29 07:28:14;;;;;;;3.60;1.00;;;10.10;96.40;;;;;;5007882;28;20074;-57
2022/05/29 07:30:40;;;;;;;2.50;0.50;;;10.10;96.30;;;;;;5010224;28;20104;-57
2022/05/29 07:33:06;;;;;;;4.55;0.90;;;10.20;96.80;;;;;;5008814;28;20046;-57
2022/05/29 07:35:32;;;;;;;1.95;0.40;;;10.40;96.70;;;;;;5010369;28;20049;-57
2022/05/29 07:37:57;;;;;;;1.75;0.55;;;10.50;94.80;;;;;;5007962;28;20033;-58
2022/05/29 07:40:24;;;;;;;4.57;0.85;;;10.60;94.60;;;;;;5011193;28;20029;-57
2022/05/29 07:45:34;;;;;;;4.28;0.82;;;10.90;94.80;;;;;;5002419;28;20037;-57
2022/05/29 07:48:00;;;;;;;4.63;1.17;;;11.00;93.40;;;;;;5005294;28;20034;-56
2022/05/29 07:50:26;;;;;;;3.85;0.75;;;11.00;92.70;;;;;;5000085;28;20022;-57
2022/05/29 07:52:54;;;;;;;1.40;0.60;;;11.10;93.10;;;;;;5008465;28;20405;-58
2022/05/29 07:55:20;;;;;;;5.70;1.40;;;11.10;93.00;;;;;;5008476;28;20068;-56
2022/05/29 07:57:47;;;;;;;3.95;0.80;;;11.20;94.50;;;;;;5006744;28;20096;-58
2022/05/29 08:00:16;;;;;;;2.88;0.80;;;11.20;91.90;;;;;;5008455;28;20026;-58
2022/05/29 08:02:41;;;;;;;3.05;0.43;;;11.40;91.20;;;;;;5008769;28;20390;-57
2022/05/29 08:05:10;;;;;;;4.65;0.77;;;11.50;90.50;;;;;;5005909;28;20038;-57
2022/05/29 08:07:36;;;;;;;1.85;0.73;;;11.70;90.90;;;;;;5009891;28;20090;-58
2022/05/29 08:10:03;;;;;;;1.67;0.55;;;11.90;90.10;;;;;;5008779;28;20029;-58
2022/05/29 08:12:29;;;;;;;5.28;0.60;;;12.20;88.40;;;;;;5010145;28;20421;-57
2022/05/29 08:14:54;;;;;;;3.15;0.60;;;12.50;87.50;;;;;;5008440;28;20040;-58
2022/05/29 08:17:20;;;;;;;2.72;0.90;;;12.70;87.00;;;;;;5010665;28;20390;-56
2022/05/29 08:19:46;;;;;;;2.50;0.82;;;12.70;86.00;;;;;;5009609;28;20488;-58
2022/05/29 08:22:11;;;;;;;3.60;0.60;;;12.80;85.60;;;;;;5008849;28;20038;-56
2022/05/29 08:33:08;;;;;;;2.60;0.57;;;13.20;82.00;;;;;;5008239;28;20049;-57
2022/05/29 08:35:35;;;;;;;2.35;0.73;;;13.30;82.60;;;;;;5009305;28;20432;-57
2022/05/29 08:38:03;;;;;;;5.72;0.60;;;13.30;81.20;;;;;;5008454;28;20377;-57
2022/05/29 08:40:30;;;;;;;3.75;0.60;;;13.50;81.50;;;;;;5001801;28;20474;-57
2022/05/29 08:42:56;;;;;;;7.55;0.55;;;13.70;80.80;;;;;;5007000;28;20033;-57
2022/05/29 08:45:22;;;;;;;4.43;0.73;;;13.70;77.60;;;;;;5007483;28;20041;-57
2022/05/29 08:47:50;;;;;;;2.83;0.70;;;13.70;77.20;;;;;;5010416;28;20429;-57
2022/05/29 08:50:27;;;;;;;2.58;0.77;;;13.40;77.30;;;;;;5008036;28;20542;-58
2022/05/29 08:53:05;;;;;;;2.45;0.40;;;13.40;79.00;;;;;;5005046;28;20038;-58
2022/05/29 08:55:52;;;;;;;1.60;0.40;;;13.20;79.30;;;;;;5010008;28;20065;-61
2022/05/29 08:58:43;;;;;;;3.25;0.60;;;13.10;79.10;;;;;;5009426;28;20080;-58
2022/05/29 09:01:30;;;;;;;2.03;0.50;;;13.10;79.40;;;;;;5006658;28;20098;-57
2022/05/29 09:03:57;;;;;;;1.73;0.63;;;13.10;77.90;;;;;;5006249;28;20478;-57
2022/05/29 09:06:33;;;;;;;2.67;0.52;;;13.00;77.90;;;;;;5009488;28;20496;-58
2022/05/29 09:09:15;;;;;;;4.68;0.98;;;13.00;77.50;;;;;;5000683;28;20095;-58
2022/05/29 09:11:44;;;;;;;2.83;0.50;;;13.20;76.80;;;;;;5002847;28;20053;-62
2022/05/29 09:14:47;;;;;;;3.60;0.50;;;13.50;76.30;;;;;;5006770;28;20033;-58
2022/05/29 09:17:31;;;;;;;4.80;0.57;;;13.80;75.00;;;;;;5007301;28;20537;-57
2022/05/29 09:20:06;;;;;;;1.52;0.50;;;14.00;72.90;;;;;;5003195;28;20140;-56
2022/05/29 09:22:38;;;;;;;3.40;0.60;;;14.30;71.20;;;;;;5009562;28;20107;-57
2022/05/29 09:25:14;;;;;;;2.03;0.40;;;14.70;69.90;;;;;;5007067;28;20164;-57
2022/05/29 09:27:46;;;;;;;3.03;0.90;;;14.70;67.50;;;;;;5008710;28;20033;-57
2022/05/29 09:30:11;;;;;;;;;;;15.00;68.00;;;;;;5007469;28;20026;-57
2022/05/29 09:32:52;;;;;;;1.45;0.68;;;15.20;67.20;;;;;;5009105;28;20032;-57
2022/05/29 09:35:54;;;;;;;2.75;0.70;;;15.40;66.30;;;;;;5008151;28;20029;-59
2022/05/29 09:38:29;;;;;;;6.63;0.68;;;15.60;66.20;;;;;;4968192;28;20054;-56
2022/05/29 09:41:19;;;;;;;3.78;0.70;;;15.70;65.60;;;;;;4950331;28;20042;-58
2022/05/29 09:44:12;;;;;;;4.40;0.80;;;15.60;64.90;;;;;;4964907;28;20105;-57
2022/05/29 09:46:43;;;;;;;1.48;0.50;;;15.50;64.60;;;;;;4967880;28;20031;-59
2022/05/29 09:49:42;;;;;;;1.85;0.50;;;15.40;65.80;;;;;;4966366;28;20364;-58
2022/05/29 09:52:30;;;;;;;2.45;0.32;;;15.60;64.10;;;;;;4964630;28;20030;-57
2022/05/29 09:55:05;;;;;;;2.85;0.68;;;15.80;64.50;;;;;;4969848;28;20090;-57
2022/05/29 09:57:44;;;;;;;5.20;0.47;;;16.00;63.20;;;;;;4971133;28;20030;-58
2022/05/29 10:00:24;;;;;;;2.83;0.60;;;15.70;63.80;;;;;;4969176;28;20482;-58
2022/05/29 10:02:50;;;;;;;2.47;0.98;;;15.90;64.70;;;;;;4971412;28;20046;-57
2022/05/29 10:05:36;;;;;;;5.15;0.60;;;16.10;64.00;;;;;;4964153;28;20029;-58
2022/05/29 10:08:30;;;;;;;1.77;0.50;;;16.20;61.70;;;;;;4969844;28;20078;-58
2022/05/29 10:11:15;;;;;;;2.22;0.43;;;16.30;61.50;;;;;;4968636;28;20509;-58
2022/05/29 10:13:42;;;;;;;2.83;0.60;;;16.00;60.90;;;;;;4964504;28;20043;-57
2022/05/29 10:16:10;;;;;;;1.65;0.28;;;16.00;61.60;;;;;;4999585;28;20477;-57
2022/05/29 10:18:38;;;;;;;1.58;0.50;;;16.00;62.40;;;;;;5012341;28;20034;-58
2022/05/29 10:21:08;;;;;;;2.30;0.50;;;16.10;62.20;;;;;;5009648;28;20523;-57
2022/05/29 10:23:38;;;;;;;1.88;0.25;;;16.10;60.60;;;;;;5012312;28;20037;-57
2022/05/29 10:26:18;;;;;;;1.73;0.50;;;16.20;60.30;;;;;;5009522;28;20024;-57
2022/05/29 10:28:44;;;;;;;4.90;0.98;;;16.60;60.60;;;;;;5012432;28;20057;-57
2022/05/29 10:31:19;;;;;;;3.50;1.00;;;16.50;61.60;;;;;;5009496;28;20545;-57
2022/05/29 10:34:00;;;;;;;3.63;0.90;;;16.40;62.30;;;;;;5011492;28;20045;-57
2022/05/29 10:36:28;;;;;;;3.33;0.55;;;16.60;60.20;;;;;;5011746;28;20026;-57
2022/05/29 10:39:34;;;;;;;1.65;0.45;;;16.70;60.00;;;;;;5011010;28;20029;-57
2022/05/29 10:41:59;;;;;;;1.20;0.30;;;16.60;60.30;;;;;;4999188;28;20030;-56
2022/05/29 10:44:57;;;;;;;1.05;0.40;;;16.50;60.00;;;;;;5011766;28;20444;-56
2022/05/29 10:47:52;;;;;;;1.75;0.77;;;16.30;59.80;;;;;;5006334;28;20026;-58
2022/05/29 10:50:23;;;;;;;3.08;0.85;;;16.20;62.10;;;;;;5006372;28;20046;-58
2022/05/29 10:53:01;;;;;;;2.40;0.52;;;16.40;60.60;;;;;;5011775;28;20037;-57
2022/05/29 10:55:41;;;;;;;2.03;1.00;;;16.10;61.50;;;;;;5010681;28;20030;-58
2022/05/29 10:58:32;;;;;;;2.15;0.70;;;16.50;61.80;;;;;;5009062;28;20044;-58
2022/05/29 11:04:18;;;;;;;2.72;0.45;;;16.60;63.30;;;;;;5002433;28;20064;-58
2022/05/29 11:06:43;;;;;;;1.38;0.30;;;16.40;63.60;;;;;;5007081;28;20022;-57
2022/05/29 11:09:29;;;;;;;4.60;0.55;;;16.20;62.20;;;;;;5009235;28;20117;-57
2022/05/29 11:12:01;;;;;;;2.67;0.40;;;16.10;62.60;;;;;;5003586;28;20038;-58
2022/05/29 11:14:44;;;;;;;1.30;0.52;;;16.20;64.70;;;;;;5010720;28;20116;-57
2022/05/29 11:17:39;;;;;;;1.75;0.30;;;16.30;64.40;;;;;;5000983;28;20033;-57
2022/05/29 11:20:23;;;;;;;2.47;0.60;;;16.80;63.70;;;;;;5009704;28;20057;-58
2022/05/29 11:23:16;;;;;;;1.95;0.40;;;17.40;59.80;;;;;;5010738;28;20022;-58
2022/05/29 11:26:20;;;;;;;1.00;0.40;;;17.80;58.20;;;;;;5010930;28;20037;-56
2022/05/29 11:29:19;;;;;;;2.53;0.30;;;17.90;58.70;;;;;;4998491;28;20026;-57
2022/05/29 11:32:03;;;;;;;3.13;0.85;;;17.60;58.70;;;;;;5010555;28;20049;-58
2022/05/29 11:34:44;;;;;;;1.08;0.40;;;17.30;58.10;;;;;;5010171;28;20034;-58
2022/05/29 11:37:25;;;;;;;3.75;0.40;;;17.10;57.80;;;;;;4999883;28;20034;-58
2022/05/29 11:40:04;;;;;;;1.30;0.50;;;17.10;58.20;;;;;;5006055;28;20109;-58
2022/05/29 11:42:46;;;;;;;2.53;0.43;;;17.30;58.80;;;;;;5005019;28;20026;-58
2022/05/29 11:51:07;;;;;;;0.75;0.40;;;17.40;58.50;;;;;;5006135;28;20065;-58
2022/05/29 11:51:16;;;;;;;1.45;0.73;;;17.40;58.20;;;;;;4998884;28;20211;-57
2022/05/29 11:53:46;;;;;;;1.65;0.40;;;17.30;58.60;;;;;;5003469;28;20402;-57
2022/05/29 11:56:37;;;;;;;3.50;0.85;;;17.20;57.00;;;;;;5008612;28;20026;-56
2022/05/29 11:59:26;;;;;;;1.50;0.40;;;17.60;56.90;;;;;;5007965;28;20025;-58
2022/05/29 12:02:06;;;;;;;1.40;0.50;;;18.00;56.60;;;;;;5000834;28;20566;-59
2022/05/29 12:04:41;;;;;;;2.38;0.40;;;18.30;56.40;;;;;;5010488;28;20062;-58
2022/05/29 12:07:33;;;;;;;4.80;0.45;;;18.80;55.20;;;;;;4999652;28;20058;-58
2022/05/29 12:10:07;;;;;;;3.92;0.50;;;19.00;52.90;;;;;;5008995;28;20036;-58
2022/05/29 12:12:55;;;;;;;5.80;0.55;;;19.20;52.10;;;;;;5008662;28;20088;-58
2022/05/29 12:15:21;;;;;;;2.72;0.50;;;18.90;52.50;;;;;;5002393;28;20124;-58
2022/05/29 12:17:53;;;;;;;1.33;0.40;;;19.30;51.10;;;;;;5007350;28;20028;-57
2022/05/29 12:20:43;;;;;;;0.90;0.30;;;19.70;49.90;;;;;;5005684;28;20034;-57
2022/05/29 12:23:26;;;;;;;1.48;0.38;;;20.20;47.30;;;;;;5008268;28;20160;-57
2022/05/29 12:26:06;;;;;;;0.65;0.20;;;20.40;48.80;;;;;;5010175;28;20037;-57
2022/05/29 12:29:02;;;;;;;2.20;0.30;;;20.70;45.20;;;;;;5009265;28;20445;-57
2022/05/29 12:31:39;;;;;;;1.13;0.30;;;20.30;45.40;;;;;;5009123;28;20162;-57
2022/05/29 12:34:08;;;;;;;1.00;0.90;;;21.00;44.50;;;;;;5006490;28;20501;-57
2022/05/29 12:36:54;;;;;;;2.05;0.35;;;20.20;45.30;;;;;;5009040;28;20057;-57
2022/05/29 12:39:25;;;;;;;1.77;0.30;;;19.40;48.00;;;;;;5000937;28;20080;-57
2022/05/29 12:42:18;;;;;;;1.35;0.40;;;19.00;49.10;;;;;;5004817;28;20457;-56
2022/05/29 12:44:53;;;;;;;1.25;0.30;;;18.50;50.60;;;;;;5016371;28;20030;-57
2022/05/29 12:47:57;;;;;;;0.47;0.17;;;18.40;51.60;;;;;;5001043;28;20030;-57
2022/05/29 12:50:52;;;;;;;0.95;0.70;;;18.90;49.30;;;;;;4998198;28;20034;-58
2022/05/29 12:53:46;;;;;;;1.75;0.45;;;19.50;48.60;;;;;;5007349;28;20197;-58
2022/05/29 12:57:04;;;;;;;1.58;0.25;;;20.20;46.70;;;;;;5006649;28;20073;-57
2022/05/29 12:59:29;;;;;;;1.48;0.20;;;20.40;46.60;;;;;;4986191;28;20037;-58
2022/05/29 13:02:31;;;;;;;1.13;0.30;;;21.50;42.00;;;;;;5005814;28;20035;-58
2022/05/29 13:05:16;;;;;;;0.82;0.30;;;22.30;40.40;;;;;;4996190;28;20025;-58
2022/05/29 13:07:52;;;;;;;0.55;0.10;;;23.20;38.40;;;;;;5008540;28;20050;-58
2022/05/29 13:10:27;;;;;;;0.47;0.30;;;23.80;37.10;;;;;;5007133;28;20038;-58
2022/05/29 13:13:02;;;;;;;1.02;0.38;;;22.90;38.10;;;;;;5007750;28;20109;-60
2022/05/29 13:15:31;;;;;;;0.60;0.28;;;21.60;41.40;;;;;;5008764;28;20048;-56
2022/05/29 13:18:26;;;;;;;1.77;0.35;;;20.80;42.90;;;;;;5006629;28;20473;-58
2022/05/29 13:21:18;;;;;;;0.32;0.32;;;19.90;42.90;;;;;;5007068;28;20502;-57
2022/05/29 13:23:52;;;;;;;2.63;0.40;;;19.20;45.40;;;;;;5004224;28;20026;-57
2022/05/29 13:26:22;;;;;;;1.25;0.20;;;18.50;45.50;;;;;;5002011;28;20033;-57
2022/05/29 13:28:53;;;;;;;2.17;0.22;;;18.20;45.90;;;;;;5011292;28;20022;-57
2022/05/29 13:31:19;;;;;;;2.28;0.57;;;18.50;47.50;;;;;;4967770;28;1260443;-57
2022/05/29 13:33:58;;;;;;;2.13;0.40;;;19.50;47.10;;;;;;5013139;28;20379;-58
2022/05/29 13:36:39;;;;;;;3.45;0.50;;;20.60;44.40;;;;;;5007654;28;20033;-57
2022/05/29 13:39:10;;;;;;;4.47;0.32;;;22.10;41.50;;;;;;5009938;28;20033;-57
2022/05/29 13:41:50;;;;;;;4.47;0.70;;;22.40;39.50;;;;;;5012556;28;20469;-57
2022/05/29 13:44:35;;;;;;;0.57;0.30;;;21.60;38.80;;;;;;5011482;28;20030;-57
2022/05/29 13:47:19;;;;;;;3.50;0.60;;;20.80;39.50;;;;;;5011363;28;20064;-57
2022/05/29 13:50:11;;;;;;;1.50;0.30;;;19.60;42.30;;;;;;5012923;28;20072;-58
2022/05/29 13:52:40;;;;;;;;;;;19.20;44.60;;;;;;5012217;28;20037;-58
2022/05/29 13:55:11;;;;;;;18.15;1.52;;;18.90;47.10;;;;;;5010552;28;20005;-56
2022/05/29 14:06:45;;;;;;;1.40;0.20;;;21.70;40.60;;;;;;5005667;28;20546;-57
2022/05/29 14:09:13;;;;;;;1.85;0.60;;;21.00;41.10;;;;;;5005172;28;20080;-57
2022/05/29 14:12:00;;;;;;;3.08;0.30;;;21.10;43.10;;;;;;5007527;28;20022;-58